Time;durP1;ratioP1;P1;durP2;ratioP2;P2;SDS_P1;SDS_P2;PMS_P1;PMS_P2;Temp;Humidity;BMP_temperature;BMP_pressure;BME280_temperature;BME280_humidity;BME280_pressure;Samples;Min_cycle;Max_cycle;Signal;HPM_P1;HPM_P2
2022/05/18 00:01:00;;;;;;;9.43;5.57;;;18.10;99.90;;;;;;5014244;28;20941;-73
2022/05/18 00:03:29;;;;;;;8.73;6.30;;;18.10;99.90;;;;;;5026051;28;20547;-73
2022/05/18 00:05:55;;;;;;;9.93;6.80;;;18.10;99.90;;;;;;5033998;28;20980;-73
2022/05/18 00:08:22;;;;;;;14.77;6.00;;;18.00;99.90;;;;;;5033299;28;21272;-73
2022/05/18 00:10:50;;;;;;;12.30;5.83;;;18.00;99.90;;;;;;5027017;28;20839;-73
2022/05/18 00:13:19;;;;;;;15.80;6.20;;;17.90;99.90;;;;;;5028800;28;20460;-73
2022/05/18 00:15:47;;;;;;;6.77;5.60;;;17.90;99.90;;;;;;5033333;28;20579;-73
2022/05/18 00:18:14;;;;;;;9.50;5.40;;;17.80;99.90;;;;;;5028580;28;20946;-73
2022/05/18 00:20:41;;;;;;;6.60;5.57;;;17.70;99.90;;;;;;5033753;28;20461;-73
2022/05/18 00:23:08;;;;;;;10.80;5.67;;;17.70;99.90;;;;;;5033082;28;20531;-73
2022/05/18 00:25:37;;;;;;;11.73;6.10;;;17.60;99.90;;;;;;5020386;28;20421;-73
2022/05/18 00:28:04;;;;;;;11.70;6.17;;;17.60;99.90;;;;;;5013592;28;20428;-73
2022/05/18 00:30:34;;;;;;;15.07;6.70;;;17.50;99.90;;;;;;5013673;28;20467;-73
2022/05/18 00:33:03;;;;;;;10.07;7.40;;;17.40;99.90;;;;;;5012821;28;20572;-73
2022/05/18 00:35:30;;;;;;;9.37;7.17;;;17.20;99.90;;;;;;5022132;28;20450;-73
2022/05/18 00:37:57;;;;;;;13.23;7.30;;;17.10;99.90;;;;;;5020179;28;20432;-73
2022/05/18 00:40:23;;;;;;;8.70;7.40;;;17.00;99.90;;;;;;5032172;28;20517;-73
2022/05/18 00:42:50;;;;;;;11.90;7.07;;;16.90;99.90;;;;;;5017552;28;20472;-73
2022/05/18 00:45:17;;;;;;;8.70;6.97;;;16.80;99.90;;;;;;5014053;28;20640;-73
2022/05/18 00:47:45;;;;;;;11.53;7.37;;;16.80;99.90;;;;;;5013723;28;20425;-73
2022/05/18 00:50:16;;;;;;;9.20;6.90;;;16.80;99.90;;;;;;5013483;28;20441;-72
2022/05/18 00:52:48;;;;;;;11.50;7.87;;;16.70;99.90;;;;;;5028387;28;20448;-72
2022/05/18 00:55:19;;;;;;;9.63;6.80;;;16.60;99.90;;;;;;5016268;28;20828;-72
2022/05/18 00:57:50;;;;;;;11.23;7.40;;;16.60;99.90;;;;;;5019184;28;20474;-72
2022/05/18 01:00:20;;;;;;;8.03;7.20;;;16.50;99.90;;;;;;5030472;28;20447;-73
2022/05/18 01:02:53;;;;;;;10.90;7.70;;;16.50;99.90;;;;;;5013186;28;20501;-72
2022/05/18 01:05:23;;;;;;;13.17;7.90;;;16.50;99.90;;;;;;5012547;28;20511;-72
2022/05/18 01:07:54;;;;;;;13.33;7.57;;;16.50;99.90;;;;;;5012511;28;20409;-72
2022/05/18 01:10:22;;;;;;;8.73;7.53;;;16.40;99.90;;;;;;5013808;28;21019;-72
2022/05/18 01:12:49;;;;;;;7.70;6.90;;;16.40;99.90;;;;;;5035914;28;20496;-73
2022/05/18 01:15:18;;;;;;;10.43;7.37;;;16.40;99.90;;;;;;5012398;28;20413;-72
2022/05/18 01:17:48;;;;;;;12.07;7.20;;;16.40;99.90;;;;;;5012901;28;20425;-72
2022/05/18 01:20:20;;;;;;;9.63;7.60;;;16.40;99.90;;;;;;5012773;28;20913;-72
2022/05/18 01:22:52;;;;;;;11.10;8.00;;;16.40;99.90;;;;;;5012924;28;20991;-72
2022/05/18 01:25:30;;;;;;;9.30;6.80;;;16.40;99.90;;;;;;5030889;28;20459;-73
2022/05/18 01:28:01;;;;;;;13.23;7.30;;;16.40;99.90;;;;;;5013177;28;20480;-72
2022/05/18 01:30:28;;;;;;;15.00;7.30;;;16.30;99.90;;;;;;5012557;28;20428;-72
2022/05/18 01:32:58;;;;;;;9.43;7.03;;;16.30;99.90;;;;;;5025710;28;20494;-72
2022/05/18 01:35:27;;;;;;;11.07;7.13;;;16.20;99.90;;;;;;5031331;28;20485;-72
2022/05/18 01:37:57;;;;;;;9.90;6.50;;;16.20;99.90;;;;;;5021704;28;20495;-72
2022/05/18 01:40:30;;;;;;;8.23;6.93;;;16.20;99.90;;;;;;5012274;28;20487;-73
2022/05/18 01:43:02;;;;;;;10.77;6.90;;;16.20;99.90;;;;;;5030856;28;20506;-73
2022/05/18 01:45:29;;;;;;;7.90;5.77;;;16.20;99.90;;;;;;5031779;28;20463;-73
2022/05/18 01:47:55;;;;;;;10.60;7.03;;;16.20;99.90;;;;;;5027081;28;20480;-73
2022/05/18 01:50:28;;;;;;;9.97;6.53;;;16.20;99.90;;;;;;5012325;28;20450;-73
2022/05/18 01:52:54;;;;;;;10.07;7.27;;;16.20;99.90;;;;;;5012202;28;20510;-72
2022/05/18 01:55:22;;;;;;;9.10;8.10;;;16.20;99.90;;;;;;5011326;28;20425;-73
2022/05/18 01:57:49;;;;;;;10.70;7.90;;;16.10;99.90;;;;;;5012395;28;20536;-72
2022/05/18 02:00:18;;;;;;;8.03;7.23;;;16.20;99.90;;;;;;5026170;28;20463;-72
2022/05/18 02:02:45;;;;;;;10.93;7.10;;;16.20;99.90;;;;;;5023388;28;20444;-73
2022/05/18 02:05:12;;;;;;;8.60;6.53;;;16.10;99.90;;;;;;5030154;28;20463;-72
2022/05/18 02:07:39;;;;;;;7.80;7.00;;;16.10;99.90;;;;;;5030479;28;20505;-72
2022/05/18 02:10:07;;;;;;;13.10;7.73;;;16.10;99.90;;;;;;5031376;28;20495;-72
2022/05/18 02:12:34;;;;;;;10.57;7.03;;;16.10;99.90;;;;;;5032270;28;21000;-72
2022/05/18 02:15:01;;;;;;;11.30;7.10;;;16.10;99.90;;;;;;5017376;28;20431;-72
2022/05/18 02:17:29;;;;;;;9.30;5.97;;;16.10;99.90;;;;;;5031353;28;21242;-72
2022/05/18 02:19:57;;;;;;;10.60;7.20;;;16.00;99.90;;;;;;5017333;28;20437;-72
2022/05/18 02:22:24;;;;;;;8.33;6.90;;;16.00;99.90;;;;;;5011683;28;21168;-72
2022/05/18 02:24:50;;;;;;;10.70;7.20;;;16.00;99.90;;;;;;5010988;28;20476;-72
2022/05/18 02:27:18;;;;;;;8.50;6.30;;;15.90;99.90;;;;;;5020506;28;20449;-72
2022/05/18 02:29:44;;;;;;;11.10;6.70;;;15.90;99.90;;;;;;5023890;28;20425;-72
2022/05/18 02:32:11;;;;;;;14.47;6.97;;;15.80;99.90;;;;;;5011040;28;20457;-72
2022/05/18 02:34:39;;;;;;;13.60;7.23;;;15.80;99.90;;;;;;5010887;28;20453;-72
2022/05/18 02:37:06;;;;;;;9.87;6.67;;;15.70;99.90;;;;;;5026497;28;20432;-72
2022/05/18 02:39:33;;;;;;;7.67;6.87;;;15.60;99.90;;;;;;5025919;28;20483;-72
2022/05/18 02:41:59;;;;;;;9.93;6.90;;;15.60;99.90;;;;;;5019296;28;21013;-72
2022/05/18 02:44:26;;;;;;;7.77;6.97;;;15.60;99.90;;;;;;5030328;28;20460;-72
2022/05/18 02:46:57;;;;;;;8.33;7.00;;;15.60;99.90;;;;;;5030583;28;20482;-72
2022/05/18 02:49:24;;;;;;;11.90;6.40;;;15.50;99.90;;;;;;5022324;28;20545;-72
2022/05/18 02:51:53;;;;;;;12.70;6.60;;;15.50;99.90;;;;;;5011471;28;20453;-72
2022/05/18 02:57:05;;;;;;;7.80;7.00;;;15.40;99.90;;;;;;5041291;28;20941;-72
2022/05/18 02:59:33;;;;;;;11.67;7.40;;;15.50;99.90;;;;;;5030637;28;20516;-72
2022/05/18 03:02:00;;;;;;;11.67;7.90;;;15.50;99.90;;;;;;5031070;28;20465;-72
2022/05/18 03:04:29;;;;;;;8.37;7.47;;;15.40;99.90;;;;;;5029979;28;20817;-72
2022/05/18 03:06:58;;;;;;;11.40;7.23;;;15.40;99.90;;;;;;5024330;28;20976;-72
2022/05/18 03:09:24;;;;;;;9.97;7.67;;;15.40;99.90;;;;;;5011191;28;20801;-72
2022/05/18 03:11:51;;;;;;;9.20;6.90;;;15.40;99.90;;;;;;5035682;28;20484;-72
2022/05/18 03:14:18;;;;;;;13.90;7.30;;;15.40;99.90;;;;;;5020786;28;20454;-72
2022/05/18 03:16:45;;;;;;;9.07;6.73;;;15.40;99.90;;;;;;5011325;28;20417;-72
2022/05/18 03:19:12;;;;;;;10.30;7.00;;;15.30;99.90;;;;;;5011323;28;20458;-72
2022/05/18 03:24:24;;;;;;;10.80;6.90;;;15.20;99.90;;;;;;5029533;28;20497;-72
2022/05/18 03:26:52;;;;;;;13.23;7.70;;;15.10;99.90;;;;;;5043999;28;20449;-72
2022/05/18 03:29:19;;;;;;;8.80;7.00;;;15.10;99.90;;;;;;5048999;28;20831;-72
2022/05/18 03:31:47;;;;;;;10.73;7.67;;;15.10;99.90;;;;;;5034141;28;20527;-72
2022/05/18 03:34:14;;;;;;;7.53;6.57;;;15.10;99.90;;;;;;5025594;28;20463;-72
2022/05/18 03:36:41;;;;;;;16.17;7.27;;;15.10;99.90;;;;;;5014831;28;20453;-72
2022/05/18 03:39:08;;;;;;;10.80;7.60;;;15.10;99.90;;;;;;5014761;28;20454;-72
2022/05/18 03:41:36;;;;;;;10.77;8.10;;;15.10;99.90;;;;;;5027228;28;20996;-72
2022/05/18 03:44:03;;;;;;;8.60;7.00;;;15.10;99.90;;;;;;5033761;28;20470;-72
2022/05/18 03:46:29;;;;;;;15.73;7.00;;;15.10;99.90;;;;;;5033545;28;20538;-72
2022/05/18 03:48:56;;;;;;;8.43;6.93;;;15.10;99.90;;;;;;5021773;28;20501;-72
2022/05/18 03:51:23;;;;;;;13.43;7.07;;;15.10;99.90;;;;;;5034057;28;21038;-72
2022/05/18 03:53:49;;;;;;;12.43;8.57;;;15.20;99.90;;;;;;5020027;28;20483;-72
2022/05/18 03:56:16;;;;;;;7.50;6.80;;;15.20;99.90;;;;;;5014337;28;20454;-72
2022/05/18 03:58:44;;;;;;;12.73;8.43;;;15.20;99.90;;;;;;5014656;28;20831;-72
2022/05/18 04:01:12;;;;;;;13.57;9.30;;;15.10;99.90;;;;;;5015213;28;20501;-72
2022/05/18 04:03:42;;;;;;;12.50;8.03;;;15.10;99.90;;;;;;5032484;28;20460;-72
2022/05/18 04:06:09;;;;;;;19.00;8.77;;;15.10;99.90;;;;;;5034153;28;20482;-72
2022/05/18 04:08:36;;;;;;;15.93;8.27;;;15.10;99.90;;;;;;5033936;28;20507;-72
2022/05/18 04:11:03;;;;;;;10.57;7.83;;;15.10;99.90;;;;;;5031338;28;20503;-74
2022/05/18 04:13:32;;;;;;;9.67;7.83;;;15.10;99.90;;;;;;5042534;28;20521;-72
2022/05/18 04:16:00;;;;;;;13.03;7.70;;;15.10;99.90;;;;;;5043942;28;20449;-72
2022/05/18 04:18:27;;;;;;;15.20;7.60;;;15.10;99.90;;;;;;5030767;28;20456;-72
2022/05/18 04:20:55;;;;;;;9.17;7.13;;;15.10;99.90;;;;;;5033980;28;20456;-72
2022/05/18 04:23:23;;;;;;;11.87;8.00;;;15.10;99.90;;;;;;5032682;28;20796;-72
2022/05/18 04:25:49;;;;;;;13.50;7.43;;;15.10;99.90;;;;;;5033880;28;20460;-72
2022/05/18 04:28:17;;;;;;;8.40;7.40;;;15.10;99.90;;;;;;5029877;28;21016;-72
2022/05/18 04:30:46;;;;;;;12.87;8.70;;;15.20;99.90;;;;;;5033102;28;20459;-72
2022/05/18 04:33:17;;;;;;;16.30;8.20;;;15.20;99.90;;;;;;5032030;28;20451;-72
2022/05/18 04:35:44;;;;;;;15.93;8.77;;;15.30;99.90;;;;;;5031216;28;20483;-70
2022/05/18 04:38:11;;;;;;;9.67;7.40;;;15.30;99.90;;;;;;5028535;28;20428;-70
2022/05/18 04:40:38;;;;;;;11.47;7.60;;;15.40;99.90;;;;;;5033052;28;20478;-70
2022/05/18 04:43:05;;;;;;;9.90;7.80;;;15.50;99.90;;;;;;5035900;28;20503;-70
2022/05/18 04:45:32;;;;;;;11.80;8.10;;;15.50;99.90;;;;;;5031520;28;20883;-70
2022/05/18 04:47:58;;;;;;;13.13;9.00;;;15.50;99.90;;;;;;5032660;28;20508;-70
2022/05/18 04:50:27;;;;;;;12.60;8.10;;;15.50;99.90;;;;;;5015726;28;20505;-70
2022/05/18 04:52:53;;;;;;;12.13;8.50;;;15.60;99.90;;;;;;5030538;28;20610;-70
2022/05/18 04:55:20;;;;;;;18.03;9.00;;;15.70;99.90;;;;;;5016182;28;20429;-70
2022/05/18 04:57:47;;;;;;;11.63;8.63;;;15.80;99.90;;;;;;5017940;28;20480;-70
2022/05/18 05:00:15;;;;;;;13.00;9.13;;;15.80;99.90;;;;;;5021508;28;20511;-70
2022/05/18 05:02:42;;;;;;;13.83;9.80;;;15.90;99.90;;;;;;5032621;28;20514;-71
2022/05/18 05:05:11;;;;;;;16.40;9.67;;;15.90;99.90;;;;;;5024411;28;20695;-70
2022/05/18 05:07:39;;;;;;;20.50;10.57;;;15.90;99.90;;;;;;5032908;28;20474;-70
2022/05/18 05:10:07;;;;;;;15.20;9.73;;;15.90;99.90;;;;;;5026655;28;20485;-72
2022/05/18 05:12:34;;;;;;;15.63;9.60;;;16.00;99.90;;;;;;5031503;28;20484;-72
2022/05/18 05:15:02;;;;;;;18.00;10.37;;;16.00;99.90;;;;;;5034807;28;20571;-70
2022/05/18 05:17:29;;;;;;;13.87;10.07;;;16.00;99.90;;;;;;5029622;28;20539;-71
2022/05/18 05:19:55;;;;;;;15.20;10.73;;;16.00;99.90;;;;;;5013063;28;20498;-71
2022/05/18 05:22:23;;;;;;;21.30;10.40;;;16.00;99.90;;;;;;5027975;28;20535;-70
2022/05/18 05:24:51;;;;;;;22.50;11.10;;;16.00;99.90;;;;;;5029439;28;20551;-70
2022/05/18 05:27:18;;;;;;;13.40;10.70;;;16.10;99.90;;;;;;5013002;28;20454;-70
2022/05/18 05:29:45;;;;;;;16.37;10.17;;;16.10;99.90;;;;;;5031979;28;20424;-70
2022/05/18 05:32:12;;;;;;;13.97;9.37;;;16.20;99.90;;;;;;5017516;28;20526;-70
2022/05/18 05:34:39;;;;;;;10.87;9.73;;;16.30;99.90;;;;;;5051356;28;20435;-70
2022/05/18 05:37:05;;;;;;;12.10;9.90;;;16.30;99.90;;;;;;5033968;28;20428;-70
2022/05/18 05:39:32;;;;;;;18.53;9.90;;;16.40;99.90;;;;;;5030865;28;20950;-70
2022/05/18 05:42:00;;;;;;;18.80;10.60;;;16.40;99.90;;;;;;5030436;28;21044;-70
2022/05/18 05:44:27;;;;;;;16.63;9.50;;;16.50;99.90;;;;;;5026195;28;20486;-70
2022/05/18 05:46:53;;;;;;;13.73;9.80;;;16.60;99.90;;;;;;5015620;28;20478;-70
2022/05/18 05:49:21;;;;;;;12.57;10.40;;;16.70;99.90;;;;;;5026502;28;20445;-71
2022/05/18 05:51:47;;;;;;;15.57;9.73;;;16.90;99.90;;;;;;5029535;28;21131;-71
2022/05/18 05:54:14;;;;;;;14.83;9.10;;;17.10;99.90;;;;;;5014250;28;20428;-71
2022/05/18 05:56:41;;;;;;;17.97;10.93;;;17.30;99.90;;;;;;5011921;28;20509;-72
2022/05/18 05:59:09;;;;;;;14.93;10.00;;;17.50;99.90;;;;;;5011714;28;20580;-72
2022/05/18 06:01:35;;;;;;;14.63;8.93;;;17.60;99.90;;;;;;5012377;28;20492;-72
2022/05/18 06:04:07;;;;;;;15.63;8.80;;;17.80;99.90;;;;;;5035501;28;20982;-72
2022/05/18 06:06:35;;;;;;;20.60;9.70;;;17.90;99.90;;;;;;5019959;28;20877;-71
2022/05/18 06:09:02;;;;;;;20.03;9.13;;;18.00;99.90;;;;;;5011751;28;20519;-71
2022/05/18 06:11:28;;;;;;;13.67;9.30;;;18.00;99.90;;;;;;5015205;28;20436;-71
2022/05/18 06:13:55;;;;;;;10.47;8.57;;;18.00;99.90;;;;;;5027188;28;20849;-72
2022/05/18 06:16:23;;;;;;;11.50;8.90;;;18.20;99.90;;;;;;5023416;28;20428;-72
2022/05/18 06:18:50;;;;;;;13.83;9.10;;;18.50;99.90;;;;;;5028813;28;20461;-71
2022/05/18 06:21:17;;;;;;;20.10;10.70;;;18.60;99.90;;;;;;5039001;28;20530;-71
2022/05/18 06:23:43;;;;;;;14.33;8.83;;;18.70;99.90;;;;;;5046551;28;20508;-71
2022/05/18 06:26:10;;;;;;;16.07;8.67;;;18.80;99.90;;;;;;5014983;28;21031;-71
2022/05/18 06:28:37;;;;;;;10.10;7.87;;;18.90;99.90;;;;;;5023841;28;20431;-72
2022/05/18 06:31:04;;;;;;;16.83;8.43;;;19.10;99.90;;;;;;5018989;28;21007;-72
2022/05/18 06:33:32;;;;;;;14.57;8.87;;;19.40;99.90;;;;;;5030247;28;20458;-72
2022/05/18 06:35:59;;;;;;;11.27;8.27;;;19.70;99.90;;;;;;5018041;28;20453;-71
2022/05/18 06:38:25;;;;;;;19.17;8.43;;;19.70;99.90;;;;;;5038389;28;20457;-71
2022/05/18 06:43:36;;;;;;;11.90;8.00;;;19.80;99.90;;;;;;5045369;28;20447;-72
2022/05/18 06:46:03;;;;;;;11.33;8.40;;;20.00;99.90;;;;;;5012783;28;20572;-73
2022/05/18 06:48:31;;;;;;;14.83;8.90;;;19.90;99.90;;;;;;5029821;28;20520;-72
2022/05/18 06:50:58;;;;;;;13.33;7.60;;;19.80;99.90;;;;;;5022320;28;20503;-72
2022/05/18 06:53:25;;;;;;;12.50;9.00;;;19.90;99.90;;;;;;5029480;28;20441;-72
2022/05/18 06:55:51;;;;;;;14.37;8.40;;;20.10;99.90;;;;;;5022784;28;20837;-72
2022/05/18 06:58:19;;;;;;;14.83;8.20;;;20.40;99.90;;;;;;5028788;28;20536;-74
2022/05/18 07:00:46;;;;;;;11.53;8.03;;;20.60;99.90;;;;;;5021690;28;20897;-73
2022/05/18 07:03:14;;;;;;;11.27;7.57;;;20.80;99.90;;;;;;5012932;28;20994;-74
2022/05/18 07:05:42;;;;;;;15.60;8.10;;;21.00;99.90;;;;;;5035108;28;21057;-74
2022/05/18 07:08:09;;;;;;;10.53;7.80;;;21.10;99.90;;;;;;5013745;28;20458;-73
2022/05/18 07:10:36;;;;;;;9.93;7.20;;;21.20;99.90;;;;;;5014035;28;20445;-73
2022/05/18 07:13:04;;;;;;;11.83;7.70;;;21.30;99.90;;;;;;5013926;28;20490;-73
2022/05/18 07:15:31;;;;;;;9.50;7.23;;;21.50;99.90;;;;;;5020038;28;20449;-73
2022/05/18 07:17:57;;;;;;;7.33;6.30;;;21.70;99.90;;;;;;5037888;28;20507;-73
2022/05/18 07:20:24;;;;;;;10.73;6.30;;;21.80;99.90;;;;;;5035335;28;20504;-73
2022/05/18 07:22:52;;;;;;;8.83;7.40;;;21.90;99.90;;;;;;5020357;28;20481;-73
2022/05/18 07:25:19;;;;;;;10.53;6.83;;;21.80;99.90;;;;;;5033398;28;20561;-73
2022/05/18 07:27:46;;;;;;;9.13;6.60;;;21.80;99.90;;;;;;5023755;28;20489;-73
2022/05/18 07:30:15;;;;;;;8.23;6.10;;;22.00;99.90;;;;;;5027335;28;20452;-73
2022/05/18 07:32:42;;;;;;;7.73;5.07;;;22.20;99.90;;;;;;5014883;28;20470;-73
2022/05/18 07:35:09;;;;;;;17.83;7.00;;;22.40;99.90;;;;;;5017801;28;20511;-72
2022/05/18 07:37:36;;;;;;;11.43;5.83;;;22.50;99.90;;;;;;5028524;28;20453;-72
2022/05/18 07:40:06;;;;;;;6.67;5.93;;;22.70;99.90;;;;;;5034479;28;20519;-73
2022/05/18 07:42:33;;;;;;;8.97;6.07;;;22.80;99.90;;;;;;5032469;28;20948;-73
2022/05/18 07:45:00;;;;;;;9.37;5.10;;;22.90;99.90;;;;;;5036052;28;20461;-74
2022/05/18 07:47:31;;;;;;;10.77;5.60;;;22.80;99.90;;;;;;5016214;28;20442;-73
2022/05/18 07:49:58;;;;;;;8.07;5.37;;;22.80;99.90;;;;;;5020712;28;20493;-72
2022/05/18 07:52:25;;;;;;;8.40;5.60;;;23.00;99.90;;;;;;5014034;28;20593;-74
2022/05/18 07:54:52;;;;;;;6.70;5.37;;;23.00;99.90;;;;;;5028870;28;20538;-72
2022/05/18 07:57:20;;;;;;;7.43;6.50;;;23.00;99.90;;;;;;5026068;28;20523;-72
2022/05/18 07:59:47;;;;;;;5.77;5.17;;;23.00;99.90;;;;;;5024803;28;20450;-72
2022/05/18 08:02:13;;;;;;;8.00;5.10;;;23.10;99.90;;;;;;5019533;28;20469;-73
2022/05/18 08:04:40;;;;;;;11.07;5.00;;;23.20;99.90;;;;;;5032489;28;20454;-72
2022/05/18 08:07:07;;;;;;;5.60;4.63;;;23.30;99.90;;;;;;5033531;28;21066;-72
2022/05/18 08:15:05;;;;;;;8.90;5.83;;;23.40;99.90;;;;;;5026912;28;20462;-73
2022/05/18 08:15:07;;;;;;;6.70;4.90;;;23.30;99.90;;;;;;5039136;28;21085;-73
2022/05/18 08:17:34;;;;;;;5.53;5.00;;;23.30;99.90;;;;;;5032717;28;20453;-74
2022/05/18 08:20:05;;;;;;;11.77;5.03;;;23.20;99.90;;;;;;5030850;28;20532;-73
2022/05/18 08:22:31;;;;;;;9.23;5.27;;;23.30;99.90;;;;;;5013877;28;20507;-73
2022/05/18 08:24:58;;;;;;;5.77;5.17;;;23.40;99.90;;;;;;5024915;28;20449;-72
2022/05/18 08:27:26;;;;;;;7.70;4.80;;;23.40;99.90;;;;;;5019263;28;20486;-73
2022/05/18 08:30:00;;;;;;;8.27;5.60;;;23.20;99.90;;;;;;5031565;28;20454;-73
2022/05/18 08:32:27;;;;;;;6.70;5.20;;;23.30;99.90;;;;;;5025728;28;20485;-73
2022/05/18 08:34:54;;;;;;;6.37;5.00;;;23.40;99.90;;;;;;5031764;28;20457;-72
2022/05/18 08:37:22;;;;;;;5.17;4.60;;;23.60;99.90;;;;;;5027388;28;20458;-73
2022/05/18 08:39:49;;;;;;;11.80;5.73;;;23.90;99.90;;;;;;5031780;28;20905;-72
2022/05/18 08:42:15;;;;;;;7.33;5.30;;;24.00;99.90;;;;;;5032741;28;20993;-73
2022/05/18 08:44:43;;;;;;;9.07;5.73;;;24.10;99.90;;;;;;5040009;28;20469;-72
2022/05/18 08:47:17;;;;;;;5.60;5.10;;;23.90;99.90;;;;;;5016886;28;20552;-73
2022/05/18 08:49:55;;;;;;;13.00;7.20;;;24.00;99.90;;;;;;5020225;28;20544;-74
2022/05/18 08:52:45;;;;;;;8.20;5.63;;;24.10;99.90;;;;;;5032349;28;20992;-74
2022/05/18 08:55:36;;;;;;;6.40;5.13;;;24.20;99.90;;;;;;5024256;28;20684;-74
2022/05/18 08:58:09;;;;;;;8.83;5.70;;;24.40;99.90;;;;;;5012870;28;20478;-74
2022/05/18 09:00:41;;;;;;;13.03;4.83;;;24.80;99.90;;;;;;5048011;28;20448;-75
2022/05/18 09:03:16;;;;;;;6.13;5.07;;;24.90;99.90;;;;;;5038262;28;20465;-74
2022/05/18 09:05:49;;;;;;;7.33;5.30;;;25.00;99.90;;;;;;5034564;28;20509;-74
2022/05/18 09:08:19;;;;;;;11.40;5.50;;;25.20;99.90;;;;;;5032978;28;20507;-74
2022/05/18 09:10:54;;;;;;;9.60;4.70;;;25.40;99.90;;;;;;5015882;28;20458;-74
2022/05/18 09:13:21;;;;;;;8.17;4.80;;;25.40;99.90;;;;;;5029073;28;21109;-75
2022/05/18 09:15:56;;;;;;;14.40;5.00;;;25.50;99.90;;;;;;5033948;28;20453;-74
2022/05/18 09:18:31;;;;;;;5.70;4.87;;;25.50;99.90;;;;;;5032677;28;20503;-74
2022/05/18 09:21:07;;;;;;;7.50;4.60;;;25.50;99.90;;;;;;5030689;28;20456;-74
2022/05/18 09:23:51;;;;;;;9.10;4.70;;;25.60;99.90;;;;;;5016496;28;20515;-75
2022/05/18 09:26:31;;;;;;;8.90;4.87;;;25.80;99.90;;;;;;5022644;28;20477;-75
2022/05/18 09:29:06;;;;;;;10.33;4.90;;;25.80;99.90;;;;;;5031229;28;20893;-75
2022/05/18 09:31:51;;;;;;;10.13;4.60;;;25.60;99.90;;;;;;5027819;28;20481;-75
2022/05/18 09:34:50;;;;;;;4.97;4.43;;;25.70;99.90;;;;;;5021053;28;20462;-75
2022/05/18 09:37:28;;;;;;;9.70;4.10;;;25.80;99.90;;;;;;5031658;28;20446;-75
2022/05/18 09:40:00;;;;;;;5.07;4.20;;;26.20;99.90;;;;;;5031259;28;20446;-75
2022/05/18 09:42:33;;;;;;;5.03;4.00;;;26.50;99.90;;;;;;5011530;28;20478;-75
2022/05/18 09:45:03;;;;;;;6.93;4.10;;;26.50;99.90;;;;;;5024977;28;20461;-74
2022/05/18 09:47:38;;;;;;;9.73;4.00;;;26.40;99.90;;;;;;5030955;28;20509;-74
2022/05/18 09:50:08;;;;;;;6.50;4.30;;;26.20;99.90;;;;;;5031381;28;20449;-74
2022/05/18 09:52:37;;;;;;;4.90;4.00;;;26.30;99.90;;;;;;5031143;28;20506;-75
2022/05/18 09:55:07;;;;;;;7.83;4.97;;;26.20;99.90;;;;;;5029095;28;20461;-74
2022/05/18 09:57:36;;;;;;;8.00;4.73;;;26.20;99.90;;;;;;5013161;28;20524;-74
2022/05/18 10:00:08;;;;;;;6.23;4.07;;;26.50;99.90;;;;;;5022890;28;20453;-75
2022/05/18 10:08:15;;;;;;;4.80;4.30;;;26.40;99.90;;;;;;5023374;28;20488;-74
2022/05/18 10:10:44;;;;;;;6.00;3.87;;;26.40;99.90;;;;;;5019133;28;20497;-75
2022/05/18 10:13:13;;;;;;;6.43;4.17;;;27.00;99.90;;;;;;5021266;28;20488;-75
2022/05/18 10:15:44;;;;;;;7.80;3.93;;;27.20;99.90;;;;;;5023636;28;20499;-74
2022/05/18 10:18:24;;;;;;;9.30;3.87;;;27.20;99.90;;;;;;5021458;28;20453;-75
2022/05/18 10:21:29;;;;;;;7.70;4.23;;;27.20;99.90;;;;;;5025727;28;20449;-76
2022/05/18 10:24:01;;;;;;;8.23;4.10;;;27.30;99.90;;;;;;5015519;28;20466;-75
2022/05/18 10:26:30;;;;;;;6.30;4.60;;;27.60;99.90;;;;;;5018467;28;20488;-76
2022/05/18 10:29:00;;;;;;;5.97;4.37;;;27.60;99.90;;;;;;5031624;28;20457;-75
2022/05/18 10:31:31;;;;;;;8.23;4.27;;;27.50;99.90;;;;;;5026347;28;20557;-75
2022/05/18 10:34:16;;;;;;;4.60;4.20;;;27.50;99.90;;;;;;5018088;28;20976;-76
2022/05/18 10:36:46;;;;;;;5.60;4.70;;;27.50;99.90;;;;;;5030767;28;20453;-76
2022/05/18 10:39:12;;;;;;;6.10;4.80;;;27.40;99.90;;;;;;5030570;28;20459;-76
2022/05/18 10:41:42;;;;;;;8.60;4.43;;;27.50;99.90;;;;;;5027515;28;20532;-75
2022/05/18 10:44:16;;;;;;;4.10;3.77;;;27.50;99.90;;;;;;5022341;28;20852;-75
2022/05/18 10:46:45;;;;;;;8.40;4.80;;;28.00;99.90;;;;;;5035252;28;20493;-75
2022/05/18 10:49:27;;;;;;;9.20;4.47;;;28.20;99.90;;;;;;5022337;28;20503;-76
2022/05/18 10:51:54;;;;;;;6.50;4.70;;;28.40;99.90;;;;;;5012514;28;20869;-75
2022/05/18 10:54:25;;;;;;;10.00;4.43;;;28.40;99.90;;;;;;5020825;28;20942;-75
2022/05/18 10:56:53;;;;;;;8.67;3.90;;;28.30;99.90;;;;;;5029760;28;20493;-75
2022/05/18 10:59:34;;;;;;;8.57;4.50;;;28.30;99.90;;;;;;5017973;28;21022;-75
2022/05/18 11:02:09;;;;;;;5.97;3.90;;;28.30;99.90;;;;;;5010472;28;20474;-74
2022/05/18 11:04:44;;;;;;;9.00;3.67;;;28.10;99.90;;;;;;5023537;28;20567;-75
2022/05/18 11:07:11;;;;;;;8.43;3.30;;;28.10;99.90;;;;;;5029674;28;20477;-75
2022/05/18 11:09:39;;;;;;;3.50;3.17;;;28.40;99.90;;;;;;5026770;28;20472;-75
2022/05/18 11:12:16;;;;;;;11.00;3.47;;;28.10;99.90;;;;;;5025895;28;20493;-75
2022/05/18 11:14:48;;;;;;;3.30;2.70;;;28.20;99.90;;;;;;5030500;28;20483;-75
2022/05/18 11:17:28;;;;;;;5.60;3.60;;;28.60;99.90;;;;;;5030867;28;20495;-74
2022/05/18 11:20:06;;;;;;;3.37;2.93;;;29.00;99.90;;;;;;5018496;28;20879;-75
2022/05/18 11:22:37;;;;;;;8.07;4.00;;;29.30;99.90;;;;;;5016828;28;20540;-75
2022/05/18 11:25:14;;;;;;;6.63;4.20;;;29.30;99.90;;;;;;5018869;28;20454;-75
2022/05/18 11:27:47;;;;;;;5.97;3.70;;;29.30;99.90;;;;;;5021655;28;20489;-74
2022/05/18 11:30:19;;;;;;;4.93;3.10;;;29.10;99.90;;;;;;5028486;28;20456;-74
2022/05/18 11:32:59;;;;;;;14.73;4.03;;;29.00;99.90;;;;;;5023972;28;20481;-73
2022/05/18 11:35:40;;;;;;;3.07;2.87;;;29.00;99.90;;;;;;5028366;28;20536;-75
2022/05/18 11:38:31;;;;;;;5.97;3.10;;;28.90;99.90;;;;;;5019860;28;20548;-76
2022/05/18 11:41:06;;;;;;;6.53;2.43;;;28.60;99.90;;;;;;4995295;28;20880;-79
2022/05/18 11:43:45;;;;;;;6.85;3.60;;;28.60;99.90;;;;;;5022304;28;20483;-75
2022/05/18 11:46:24;;;;;;;6.40;3.20;;;28.50;99.90;;;;;;5029287;28;20206;-76
2022/05/18 11:49:00;;;;;;;7.20;3.13;;;28.30;99.90;;;;;;5017931;28;20453;-75
2022/05/18 11:51:38;;;;;;;4.00;2.77;;;28.30;99.90;;;;;;5030815;28;20476;-72
2022/05/18 11:54:19;;;;;;;5.13;3.53;;;28.00;99.90;;;;;;5022244;28;20492;-73
2022/05/18 11:56:54;;;;;;;6.70;3.23;;;28.00;99.90;;;;;;5014716;28;20531;-73
2022/05/18 11:59:52;;;;;;;4.67;3.33;;;28.10;99.90;;;;;;5028952;28;20452;-74
2022/05/18 12:02:54;;;;;;;6.10;2.70;;;28.10;99.90;;;;;;5023356;28;20441;-72
2022/05/18 12:05:50;;;;;;;4.60;3.37;;;28.40;99.90;;;;;;5029501;28;20206;-75
2022/05/18 12:08:44;;;;;;;4.97;3.10;;;28.80;99.90;;;;;;5024122;28;20484;-75
2022/05/18 12:11:21;;;;;;;9.87;2.60;;;29.20;99.90;;;;;;5030249;28;20460;-78
2022/05/18 12:14:08;;;;;;;4.43;2.27;;;29.10;99.90;;;;;;5027009;28;20962;-79
2022/05/18 12:16:45;;;;;;;6.67;2.80;;;29.10;99.90;;;;;;5034836;28;20533;-75
2022/05/18 12:19:21;;;;;;;4.27;2.50;;;29.40;99.90;;;;;;5016876;28;20457;-78
2022/05/18 12:21:52;;;;;;;3.23;2.70;;;29.60;99.90;;;;;;5027959;28;20465;-78
2022/05/18 12:24:21;;;;;;;6.40;3.17;;;29.50;99.90;;;;;;5027125;28;20495;-78
2022/05/18 12:26:49;;;;;;;3.43;2.63;;;29.40;99.90;;;;;;5027747;28;20481;-79
2022/05/18 12:29:19;;;;;;;5.10;2.93;;;29.20;99.90;;;;;;5028680;28;20501;-78
2022/05/18 12:31:46;;;;;;;5.17;2.83;;;29.00;99.90;;;;;;5031583;28;20469;-78
2022/05/18 12:34:24;;;;;;;9.10;3.13;;;28.80;99.90;;;;;;5023097;28;20571;-78
2022/05/18 12:36:55;;;;;;;7.07;3.10;;;28.70;99.90;;;;;;5029930;28;20453;-78
2022/05/18 12:39:41;;;;;;;8.03;3.00;;;28.70;99.90;;;;;;5030407;28;20453;-77
2022/05/18 12:42:10;;;;;;;4.07;2.70;;;28.60;99.90;;;;;;5028733;28;20524;-78
2022/05/18 12:44:40;;;;;;;4.77;2.87;;;28.70;99.90;;;;;;5024276;28;20872;-79
2022/05/18 12:47:19;;;;;;;5.10;3.00;;;28.80;99.90;;;;;;5029015;28;20501;-79
2022/05/18 12:49:51;;;;;;;4.30;2.63;;;29.00;99.90;;;;;;5032452;28;20464;-79
2022/05/18 12:52:32;;;;;;;5.83;2.73;;;28.80;99.90;;;;;;5028796;28;20469;-79
2022/05/18 12:55:13;;;;;;;3.53;3.23;;;28.80;99.90;;;;;;5032014;28;20953;-79
2022/05/18 12:58:04;;;;;;;3.90;2.97;;;28.70;99.90;;;;;;5032465;28;20437;-78
2022/05/18 13:00:57;;;;;;;5.70;3.10;;;28.80;99.90;;;;;;5022724;28;20516;-79
2022/05/18 13:03:46;;;;;;;4.13;2.97;;;28.80;99.90;;;;;;5020239;28;20993;-78
2022/05/18 13:06:16;;;;;;;3.27;2.37;;;28.90;99.90;;;;;;5011071;28;21018;-79
2022/05/18 13:09:04;;;;;;;7.43;2.90;;;29.00;99.90;;;;;;5027085;28;20497;-79
2022/05/18 13:11:48;;;;;;;7.53;2.70;;;29.00;99.90;;;;;;5033496;28;20565;-78
2022/05/18 13:14:39;;;;;;;5.10;2.70;;;29.00;99.90;;;;;;5032281;28;20449;-79
2022/05/18 13:17:43;;;;;;;3.63;2.70;;;29.10;99.90;;;;;;5036475;28;20452;-80